Terminal Aerodrome Forecast
Issued by NWS

Home | Current Version | Previous Version | Text Only | Print | Product List | Glossary On
Versions: 1 2 3 4 5 6 7 8 9 10 11 12 13
000
FTUS45 KRIW 261726
TAFPNA
TAF
KPNA 261726Z 2618/2718 30005KT P6SM BKN060
     FM262000 31009KT P6SM VCTS SCT060CB BKN080
     FM270100 33010KT P6SM VCSH BKN070
     FM270400 30007KT P6SM SCT080 BKN200
      AMD LTD TO CLD VIS AND WIND=

USA.gov is the U.S. government's official web portal to all federal, state and local government web resources and services.